Time;durP1;ratioP1;P1;durP2;ratioP2;P2;SDS_P1;SDS_P2;PMS_P1;PMS_P2;Temp;Humidity;BMP_temperature;BMP_pressure;BME280_temperature;BME280_humidity;BME280_pressure;Samples;Min_cycle;Max_cycle;Signal;HPM_P1;HPM_P2
2021/11/18 00:00:55;;;;;;;19.63;9.43;;;10.10;99.90;;;;;;5034619;28;20112;-76
2021/11/18 00:03:22;;;;;;;18.00;8.43;;;10.10;99.90;;;;;;5034465;28;20022;-76
2021/11/18 00:05:48;;;;;;;13.27;7.68;;;10.10;99.90;;;;;;5034568;28;20451;-74
2021/11/18 00:08:15;;;;;;;17.70;8.95;;;10.00;99.90;;;;;;5034526;28;20025;-76
2021/11/18 00:10:46;;;;;;;17.20;8.98;;;10.00;99.90;;;;;;5034166;28;20487;-75
2021/11/18 00:13:15;;;;;;;21.30;9.15;;;10.10;99.90;;;;;;5034174;28;20108;-75
2021/11/18 00:15:42;;;;;;;15.17;8.67;;;10.10;99.90;;;;;;5033944;28;20033;-74
2021/11/18 00:18:15;;;;;;;20.05;9.93;;;10.10;99.90;;;;;;5034058;28;20402;-74
2021/11/18 00:20:44;;;;;;;24.08;14.48;;;10.20;99.90;;;;;;5034019;28;20026;-74
2021/11/18 00:23:10;;;;;;;34.45;16.00;;;10.10;99.90;;;;;;5034158;28;20025;-75
2021/11/18 00:25:36;;;;;;;25.88;16.48;;;10.20;99.90;;;;;;5033920;28;20071;-75
2021/11/18 00:28:02;;;;;;;17.92;12.30;;;10.10;99.90;;;;;;5033875;28;20025;-76
2021/11/18 00:30:28;;;;;;;22.75;15.82;;;10.10;99.90;;;;;;5033852;28;20075;-75
2021/11/18 00:32:55;;;;;;;18.85;11.80;;;10.10;99.90;;;;;;5034321;28;20022;-74
2021/11/18 00:35:25;;;;;;;22.45;12.02;;;10.00;99.90;;;;;;5033798;28;20024;-76
2021/11/18 00:37:51;;;;;;;;;;;10.00;99.90;;;;;;5034155;28;20074;-73
2021/11/18 00:40:21;;;;;;;20.85;9.50;;;10.10;99.90;;;;;;5034187;28;19909;-74
2021/11/18 00:42:47;;;;;;;;;;;10.10;99.90;;;;;;5034517;28;20480;-76
2021/11/18 00:45:14;;;;;;;17.02;8.93;;;10.20;99.90;;;;;;5033597;28;20036;-75
2021/11/18 00:47:40;;;;;;;15.73;8.55;;;10.10;99.90;;;;;;5033239;28;20021;-76
2021/11/18 00:50:06;;;;;;;17.70;8.15;;;10.10;99.90;;;;;;5033589;28;20434;-74
2021/11/18 00:52:32;;;;;;;16.83;7.93;;;10.10;99.90;;;;;;5033275;28;20095;-76
2021/11/18 00:54:58;;;;;;;12.10;7.30;;;10.10;99.90;;;;;;5033192;28;20049;-74
2021/11/18 00:57:24;;;;;;;16.38;8.10;;;9.90;99.90;;;;;;5033714;28;20084;-76
2021/11/18 00:59:50;;;;;;;17.77;7.30;;;9.80;99.90;;;;;;5033392;28;20451;-76
2021/11/18 01:02:17;;;;;;;19.50;8.02;;;9.90;99.90;;;;;;5033308;28;20049;-74
2021/11/18 01:04:44;;;;;;;16.83;7.78;;;10.00;99.90;;;;;;5033245;28;20025;-76
2021/11/18 01:07:10;;;;;;;18.35;7.38;;;10.10;99.90;;;;;;5033265;28;20030;-74
2021/11/18 01:09:36;;;;;;;12.50;7.13;;;10.10;99.90;;;;;;5033251;28;20025;-76
2021/11/18 01:12:04;;;;;;;17.92;6.75;;;10.10;99.90;;;;;;5033244;28;20504;-74
2021/11/18 01:14:30;;;;;;;13.60;6.55;;;10.00;99.90;;;;;;5033162;28;20037;-76
2021/11/18 01:16:56;;;;;;;12.38;6.43;;;10.00;99.90;;;;;;5033220;28;20025;-74
2021/11/18 01:19:22;;;;;;;16.40;7.40;;;10.00;99.90;;;;;;5033147;28;20029;-74
2021/11/18 01:21:50;;;;;;;15.63;6.40;;;10.10;99.90;;;;;;5033118;28;20103;-75
2021/11/18 01:24:16;;;;;;;14.13;6.38;;;10.00;99.90;;;;;;5033020;28;20037;-75
2021/11/18 01:26:42;;;;;;;19.42;8.30;;;10.10;99.90;;;;;;5033332;28;20395;-76
2021/11/18 01:29:07;;;;;;;14.07;7.28;;;10.10;99.90;;;;;;5033319;28;20018;-76
2021/11/18 01:31:33;;;;;;;21.88;9.77;;;10.10;99.90;;;;;;5033325;28;20033;-76
2021/11/18 01:34:00;;;;;;;14.02;9.23;;;10.10;99.90;;;;;;5033315;28;20491;-75
2021/11/18 01:36:26;;;;;;;16.55;9.40;;;10.20;99.90;;;;;;5033019;28;20386;-76
2021/11/18 01:38:52;;;;;;;16.92;8.52;;;10.20;99.90;;;;;;5015325;28;20025;-76
2021/11/18 01:41:22;;;;;;;18.92;8.57;;;10.00;99.90;;;;;;5015270;28;20034;-75
2021/11/18 01:43:51;;;;;;;15.37;7.97;;;9.90;99.90;;;;;;5032952;28;20465;-73
2021/11/18 01:46:21;;;;;;;18.00;8.40;;;10.00;99.90;;;;;;5032917;28;20028;-75
2021/11/18 01:48:50;;;;;;;21.90;8.98;;;10.00;99.90;;;;;;5033247;28;20025;-76
2021/11/18 01:51:18;;;;;;;22.05;8.70;;;10.10;99.90;;;;;;5033025;28;20026;-74
2021/11/18 01:53:46;;;;;;;18.13;8.45;;;10.10;99.90;;;;;;5032792;28;20041;-74
2021/11/18 01:56:18;;;;;;;16.48;8.48;;;10.10;99.90;;;;;;5032338;28;20054;-75
2021/11/18 01:58:48;;;;;;;13.73;7.07;;;10.10;99.90;;;;;;5015104;28;20035;-77
2021/11/18 02:01:15;;;;;;;19.50;8.93;;;10.10;99.90;;;;;;5036546;28;20033;-74
2021/11/18 02:03:41;;;;;;;18.50;8.30;;;10.00;99.90;;;;;;5036502;28;20033;-76
2021/11/18 02:06:30;;;;;;;18.30;8.85;;;9.90;99.90;;;;;;5036808;28;20479;-76
2021/11/18 02:08:55;;;;;;;15.68;9.30;;;10.00;99.90;;;;;;5037063;28;20093;-76
2021/11/18 02:11:29;;;;;;;16.08;8.75;;;10.00;99.90;;;;;;5036461;28;20060;-75
2021/11/18 02:13:56;;;;;;;19.33;8.80;;;10.00;99.90;;;;;;5036411;28;20025;-75
2021/11/18 02:16:23;;;;;;;17.63;9.20;;;10.10;99.90;;;;;;5036665;28;20026;-75
2021/11/18 02:18:49;;;;;;;15.35;7.93;;;10.10;99.90;;;;;;5036318;28;20113;-74
2021/11/18 02:21:16;;;;;;;18.52;8.57;;;10.10;99.90;;;;;;5036305;28;20018;-76
2021/11/18 02:23:48;;;;;;;16.35;9.18;;;10.00;99.90;;;;;;5018364;28;20063;-75
2021/11/18 02:26:15;;;;;;;18.77;9.00;;;9.90;99.90;;;;;;5036522;28;20475;-75
2021/11/18 02:28:44;;;;;;;24.83;12.18;;;10.00;99.90;;;;;;5036161;28;20049;-75
2021/11/18 02:31:36;;;;;;;14.68;7.75;;;9.90;99.90;;;;;;5036103;28;20017;-76
2021/11/18 02:34:06;;;;;;;16.70;7.95;;;9.90;99.90;;;;;;5035153;28;20041;-74
2021/11/18 02:36:32;;;;;;;15.38;7.65;;;9.90;99.90;;;;;;5036319;28;20025;-76
2021/11/18 02:38:57;;;;;;;11.10;6.60;;;9.90;99.90;;;;;;5035967;28;20120;-76
2021/11/18 02:41:23;;;;;;;15.32;8.00;;;9.90;99.90;;;;;;5036161;28;20026;-75
2021/11/18 02:43:50;;;;;;;16.95;9.15;;;9.90;99.90;;;;;;5035751;28;20057;-76
2021/11/18 02:46:17;;;;;;;19.40;8.15;;;9.60;99.90;;;;;;5035804;28;20490;-75
2021/11/18 02:48:43;;;;;;;19.98;8.52;;;9.60;99.90;;;;;;5035775;28;20029;-74
2021/11/18 02:51:12;;;;;;;17.17;8.70;;;9.70;99.90;;;;;;5035759;28;20064;-75
2021/11/18 02:53:39;;;;;;;15.57;8.63;;;9.70;99.90;;;;;;5035879;28;20083;-75
2021/11/18 02:56:06;;;;;;;18.30;8.52;;;9.80;99.90;;;;;;5035542;28;20049;-76
2021/11/18 02:58:31;;;;;;;15.40;7.68;;;9.80;99.90;;;;;;5035577;28;20033;-74
2021/11/18 03:01:12;;;;;;;13.52;7.95;;;9.80;99.90;;;;;;5035563;28;20026;-75
2021/11/18 03:03:39;;;;;;;20.30;8.43;;;9.90;99.90;;;;;;5035463;28;20400;-74
2021/11/18 03:06:06;;;;;;;20.75;8.93;;;9.70;99.90;;;;;;5035397;28;20026;-75
2021/11/18 03:08:32;;;;;;;29.83;10.77;;;9.70;99.90;;;;;;5035389;28;20049;-76
2021/11/18 03:10:59;;;;;;;22.40;8.45;;;9.80;99.90;;;;;;5034734;28;20025;-75
2021/11/18 03:13:27;;;;;;;23.67;9.25;;;9.90;99.90;;;;;;5035177;28;20044;-74
2021/11/18 03:15:53;;;;;;;18.60;8.80;;;9.80;99.90;;;;;;5035272;28;20024;-75
2021/11/18 03:18:22;;;;;;;18.25;10.02;;;9.80;99.90;;;;;;5035543;28;20029;-75
2021/11/18 03:20:48;;;;;;;16.55;8.73;;;9.90;99.90;;;;;;5017440;28;20112;-74
2021/11/18 03:23:13;;;;;;;19.67;9.23;;;9.80;99.90;;;;;;5035097;28;20112;-75
2021/11/18 03:25:40;;;;;;;19.90;9.15;;;9.90;99.90;;;;;;5035125;28;20160;-76
2021/11/18 03:28:07;;;;;;;21.45;7.97;;;9.90;99.90;;;;;;5035069;28;20017;-75
2021/11/18 03:30:36;;;;;;;17.42;8.75;;;9.90;99.90;;;;;;5034976;28;20018;-76
2021/11/18 03:33:06;;;;;;;17.25;9.13;;;9.90;99.90;;;;;;5034940;28;20033;-76
2021/11/18 03:35:32;;;;;;;16.80;9.43;;;9.90;99.90;;;;;;5035120;28;20028;-74
2021/11/18 03:38:00;;;;;;;16.75;9.38;;;9.70;99.90;;;;;;5034882;28;20101;-76
2021/11/18 03:40:26;;;;;;;20.50;9.52;;;9.80;99.90;;;;;;5034789;28;20068;-76
2021/11/18 03:42:52;;;;;;;20.05;10.60;;;9.80;99.90;;;;;;5034645;28;20036;-75
2021/11/18 03:45:20;;;;;;;19.85;8.90;;;9.80;99.90;;;;;;5034688;28;20029;-74
2021/11/18 03:47:45;;;;;;;19.33;10.50;;;9.90;99.90;;;;;;5016906;28;20030;-74
2021/11/18 03:50:12;;;;;;;16.15;8.68;;;9.90;99.90;;;;;;5034626;28;20463;-76
2021/11/18 03:52:38;;;;;;;17.73;9.00;;;9.90;99.90;;;;;;5034786;28;20025;-75
2021/11/18 03:55:10;;;;;;;20.95;9.60;;;9.80;99.90;;;;;;5034341;28;20498;-76
2021/11/18 03:57:36;;;;;;;17.33;10.10;;;9.80;99.90;;;;;;5016484;28;20083;-74
2021/11/18 04:00:08;;;;;;;17.95;9.52;;;9.60;99.90;;;;;;5034417;28;20074;-76
2021/11/18 04:02:33;;;;;;;16.35;9.68;;;9.60;99.90;;;;;;5034963;28;20104;-76
2021/11/18 04:05:00;;;;;;;24.40;10.88;;;9.80;99.90;;;;;;5016571;28;20428;-76
2021/11/18 04:07:27;;;;;;;21.88;10.70;;;9.70;99.90;;;;;;5034301;28;20387;-74
2021/11/18 04:09:53;;;;;;;19.38;10.43;;;9.60;99.90;;;;;;5034227;28;20045;-77
2021/11/18 04:12:19;;;;;;;16.88;10.48;;;9.70;99.90;;;;;;5034194;28;20017;-74
2021/11/18 04:14:46;;;;;;;21.88;9.68;;;9.70;99.90;;;;;;5034101;28;20091;-76
2021/11/18 04:17:13;;;;;;;20.17;9.05;;;9.70;99.90;;;;;;5034672;28;20103;-74
2021/11/18 04:19:39;;;;;;;16.38;7.90;;;9.70;99.90;;;;;;5034054;28;20104;-75
2021/11/18 04:22:06;;;;;;;16.85;9.43;;;9.60;99.90;;;;;;5034191;28;20049;-75
2021/11/18 04:24:33;;;;;;;23.63;9.50;;;9.70;99.90;;;;;;5015409;28;20112;-75
2021/11/18 04:26:59;;;;;;;18.13;7.78;;;9.60;99.90;;;;;;5033889;28;20383;-74
2021/11/18 04:29:29;;;;;;;17.13;9.52;;;9.60;99.90;;;;;;5033874;28;20033;-74
2021/11/18 04:32:01;;;;;;;22.67;10.73;;;9.50;99.90;;;;;;5033830;28;20021;-75
2021/11/18 04:34:27;;;;;;;20.23;10.68;;;9.40;99.90;;;;;;5033945;28;20034;-73
2021/11/18 04:36:54;;;;;;;21.55;10.75;;;9.30;99.90;;;;;;5033744;28;20026;-74
2021/11/18 04:39:20;;;;;;;21.33;11.05;;;9.20;99.90;;;;;;5033664;28;20036;-75
2021/11/18 04:41:46;;;;;;;18.27;10.70;;;9.20;99.90;;;;;;5033624;28;20482;-76
2021/11/18 04:44:11;;;;;;;21.25;11.10;;;9.30;99.90;;;;;;5033531;28;20038;-75
2021/11/18 04:46:37;;;;;;;17.65;9.35;;;9.10;99.90;;;;;;5033642;28;20502;-74
2021/11/18 04:49:04;;;;;;;21.77;9.57;;;9.30;99.90;;;;;;5033518;28;20025;-75
2021/11/18 04:51:31;;;;;;;21.42;9.48;;;9.30;99.90;;;;;;5033537;28;20022;-74
2021/11/18 04:53:58;;;;;;;16.77;8.75;;;9.30;99.90;;;;;;5033417;28;20037;-75
2021/11/18 04:56:25;;;;;;;16.13;8.68;;;9.10;99.90;;;;;;5033672;28;20041;-75
2021/11/18 04:58:52;;;;;;;15.13;7.78;;;9.10;99.90;;;;;;5033446;28;20111;-75
2021/11/18 05:01:18;;;;;;;18.63;9.27;;;9.20;99.90;;;;;;5033399;28;20025;-76
2021/11/18 05:03:45;;;;;;;19.13;9.07;;;9.30;99.90;;;;;;5033256;28;20044;-76
2021/11/18 05:06:11;;;;;;;12.68;8.07;;;9.30;99.90;;;;;;5033582;28;20522;-77
2021/11/18 05:08:37;;;;;;;14.25;8.07;;;9.30;99.90;;;;;;5033301;28;20115;-76
2021/11/18 05:11:03;;;;;;;17.73;9.23;;;9.40;99.90;;;;;;5033242;28;20021;-75
2021/11/18 05:13:30;;;;;;;15.95;8.23;;;9.40;99.90;;;;;;5015559;28;20379;-77
2021/11/18 05:15:58;;;;;;;13.68;8.88;;;9.10;99.90;;;;;;5033189;28;20025;-76
2021/11/18 05:18:26;;;;;;;20.23;8.18;;;9.10;99.90;;;;;;5033134;28;20022;-76
2021/11/18 05:20:52;;;;;;;20.13;8.63;;;9.10;99.90;;;;;;5033181;28;20453;-74
2021/11/18 05:23:19;;;;;;;16.15;8.10;;;9.10;99.90;;;;;;5033055;28;20065;-74
2021/11/18 05:25:45;;;;;;;14.05;8.63;;;9.20;99.90;;;;;;5033140;28;20021;-75
2021/11/18 05:28:11;;;;;;;14.90;9.13;;;9.20;99.90;;;;;;5033121;28;20434;-74
2021/11/18 05:30:38;;;;;;;15.20;8.13;;;9.20;99.90;;;;;;5033102;28;20018;-76
2021/11/18 05:33:08;;;;;;;15.98;7.95;;;9.20;99.90;;;;;;5033046;28;20018;-74
2021/11/18 05:35:35;;;;;;;15.10;8.40;;;9.10;99.90;;;;;;5035879;28;20033;-75
2021/11/18 05:38:02;;;;;;;14.93;7.90;;;9.10;99.90;;;;;;5037103;28;20036;-73
2021/11/18 05:40:29;;;;;;;12.65;7.45;;;9.10;99.90;;;;;;5037079;28;20022;-76
2021/11/18 05:42:55;;;;;;;15.30;7.03;;;9.10;99.90;;;;;;5037145;28;20533;-76
2021/11/18 05:45:25;;;;;;;17.05;7.82;;;9.10;99.90;;;;;;5036887;28;20478;-76
2021/11/18 05:47:51;;;;;;;24.95;8.25;;;9.20;99.90;;;;;;5036964;28;20495;-76
2021/11/18 05:50:17;;;;;;;23.27;10.90;;;9.20;99.90;;;;;;5036883;28;20025;-74
2021/11/18 05:52:43;;;;;;;20.85;10.43;;;8.90;99.90;;;;;;5036764;28;20033;-76
2021/11/18 05:55:11;;;;;;;16.40;9.82;;;9.00;99.90;;;;;;5036611;28;20041;-74
2021/11/18 05:57:37;;;;;;;22.13;10.45;;;8.90;99.90;;;;;;5036909;28;20033;-74
2021/11/18 06:00:07;;;;;;;22.45;9.88;;;9.10;99.90;;;;;;5036714;28;20025;-75
2021/11/18 06:02:32;;;;;;;27.52;10.57;;;9.10;99.90;;;;;;5036727;28;20033;-74
2021/11/18 06:04:58;;;;;;;19.02;10.40;;;9.10;99.90;;;;;;5037071;28;20029;-74
2021/11/18 06:07:24;;;;;;;23.15;10.77;;;9.00;99.90;;;;;;5036856;28;20025;-75
2021/11/18 06:09:49;;;;;;;15.88;9.70;;;9.00;99.90;;;;;;5036538;28;20025;-73
2021/11/18 06:12:17;;;;;;;19.63;10.10;;;9.10;99.90;;;;;;5036498;28;20022;-73
2021/11/18 06:14:42;;;;;;;19.20;9.48;;;9.20;99.90;;;;;;5036432;28;20092;-74
2021/11/18 06:17:08;;;;;;;16.13;8.38;;;9.30;99.90;;;;;;5036356;28;20044;-75
2021/11/18 06:19:34;;;;;;;18.30;10.35;;;9.30;99.90;;;;;;5036612;28;20109;-75
2021/11/18 06:22:00;;;;;;;18.05;8.50;;;9.30;99.90;;;;;;5036311;28;20494;-76
2021/11/18 06:24:26;;;;;;;18.75;10.48;;;9.30;99.90;;;;;;5036168;28;20022;-74
2021/11/18 06:26:54;;;;;;;21.92;13.25;;;9.30;99.90;;;;;;5036136;28;20018;-74
2021/11/18 06:29:20;;;;;;;19.50;10.38;;;9.30;99.90;;;;;;5036357;28;20032;-74
2021/11/18 06:31:57;;;;;;;16.30;9.75;;;9.20;99.90;;;;;;5036377;28;20017;-75
2021/11/18 06:34:23;;;;;;;17.70;9.45;;;9.20;99.90;;;;;;5036114;28;20040;-76
2021/11/18 06:36:50;;;;;;;19.50;9.70;;;9.20;99.90;;;;;;5036569;28;20053;-75
2021/11/18 06:39:15;;;;;;;14.32;7.72;;;9.10;99.90;;;;;;5035897;28;20042;-74
2021/11/18 06:41:42;;;;;;;21.38;9.93;;;9.10;99.90;;;;;;5035878;28;20122;-73
2021/11/18 06:44:08;;;;;;;17.90;9.02;;;9.00;99.90;;;;;;5036060;28;20021;-73
2021/11/18 06:46:35;;;;;;;16.52;9.45;;;8.90;99.90;;;;;;5035051;28;20017;-75
2021/11/18 06:49:02;;;;;;;17.30;9.88;;;9.00;99.90;;;;;;5035787;28;20024;-76
2021/11/18 06:51:28;;;;;;;16.80;8.82;;;8.90;99.90;;;;;;5017910;28;20013;-73
2021/11/18 06:53:57;;;;;;;21.70;9.40;;;9.00;99.90;;;;;;5035611;28;20116;-75
2021/11/18 06:56:24;;;;;;;17.55;10.23;;;9.10;99.90;;;;;;5035472;28;20077;-74
2021/11/18 06:58:50;;;;;;;17.08;7.78;;;9.10;99.90;;;;;;5017893;28;20494;-74
2021/11/18 07:01:16;;;;;;;18.90;9.90;;;9.20;99.90;;;;;;5035548;28;20025;-75
2021/11/18 07:03:42;;;;;;;18.10;9.70;;;9.20;99.90;;;;;;5035734;28;20036;-76
2021/11/18 07:06:14;;;;;;;17.08;8.77;;;9.20;99.90;;;;;;5035491;28;20028;-75
2021/11/18 07:08:40;;;;;;;54.40;33.40;;;9.20;99.90;;;;;;5035709;28;20018;-74
2021/11/18 07:11:07;;;;;;;24.80;15.38;;;9.20;99.90;;;;;;5035671;28;20156;-74
2021/11/18 07:13:33;;;;;;;17.83;8.98;;;9.20;99.90;;;;;;5035335;28;20493;-75
2021/11/18 07:16:05;;;;;;;10.82;7.68;;;9.30;99.90;;;;;;5017491;28;20506;-76
2021/11/18 07:18:31;;;;;;;15.35;6.95;;;9.30;99.90;;;;;;5035285;28;20034;-74
2021/11/18 07:20:57;;;;;;;17.10;10.55;;;9.30;99.90;;;;;;5035235;28;20450;-75
2021/11/18 07:23:24;;;;;;;24.83;9.18;;;9.20;99.90;;;;;;5034997;28;20505;-74
2021/11/18 07:25:56;;;;;;;17.15;8.00;;;9.20;99.90;;;;;;5035051;28;20029;-74
2021/11/18 07:28:24;;;;;;;15.23;7.65;;;9.10;99.90;;;;;;5035311;28;20025;-76
2021/11/18 07:30:52;;;;;;;15.73;7.72;;;9.10;99.90;;;;;;5035279;28;20112;-76
2021/11/18 07:33:18;;;;;;;29.77;9.25;;;9.10;99.90;;;;;;5035236;28;20021;-75
2021/11/18 07:35:45;;;;;;;15.27;7.10;;;9.10;99.90;;;;;;5035185;28;20045;-76
2021/11/18 07:38:11;;;;;;;17.75;7.50;;;9.10;99.90;;;;;;5017122;28;20068;-74
2021/11/18 07:40:38;;;;;;;15.73;7.45;;;9.20;99.90;;;;;;5035360;28;20017;-75
2021/11/18 07:43:08;;;;;;;19.60;7.95;;;9.30;99.90;;;;;;5034692;28;20060;-73
2021/11/18 07:45:35;;;;;;;13.45;7.18;;;9.20;99.90;;;;;;5034681;28;20156;-74
2021/11/18 07:48:00;;;;;;;15.15;6.70;;;9.30;99.90;;;;;;5034702;28;20148;-74
2021/11/18 07:50:26;;;;;;;10.95;6.53;;;9.30;99.90;;;;;;5034202;28;20022;-74
2021/11/18 07:52:52;;;;;;;12.25;6.85;;;9.30;99.90;;;;;;5024449;28;20069;-79
2021/11/18 07:55:20;;;;;;;20.85;8.02;;;9.40;99.90;;;;;;4996984;28;20046;-82
2021/11/18 07:57:46;;;;;;;20.05;8.05;;;9.30;99.90;;;;;;5009671;28;20037;-78
2021/11/18 08:00:14;;;;;;;14.13;7.13;;;9.30;99.90;;;;;;5033941;28;20119;-79
2021/11/18 08:02:42;;;;;;;14.73;6.28;;;9.30;99.90;;;;;;5033437;28;20025;-80
2021/11/18 08:05:08;;;;;;;10.93;6.15;;;9.40;99.90;;;;;;5021946;28;20025;-81
2021/11/18 08:07:34;;;;;;;15.27;7.07;;;9.40;99.90;;;;;;5025186;28;20030;-78
2021/11/18 08:09:59;;;;;;;15.80;6.03;;;9.40;99.90;;;;;;5019034;28;20023;-78
2021/11/18 08:12:25;;;;;;;33.67;19.77;;;9.30;99.90;;;;;;5015227;28;20022;-81
2021/11/18 08:14:51;;;;;;;16.83;7.80;;;9.40;99.90;;;;;;5014957;28;20036;-82
2021/11/18 08:17:17;;;;;;;15.82;7.35;;;9.30;99.90;;;;;;5020790;28;20101;-81
2021/11/18 08:19:42;;;;;;;19.90;10.98;;;9.40;99.90;;;;;;5008089;28;20460;-79
2021/11/18 08:22:09;;;;;;;22.65;10.38;;;9.10;99.90;;;;;;5014300;28;20030;-79
2021/11/18 08:24:35;;;;;;;21.20;10.48;;;8.90;99.90;;;;;;5014707;28;20065;-78
2021/11/18 08:27:02;;;;;;;18.75;10.30;;;9.00;99.90;;;;;;5026528;28;20029;-79
2021/11/18 08:29:29;;;;;;;18.20;9.60;;;9.10;99.90;;;;;;5031298;28;20049;-80
2021/11/18 08:31:56;;;;;;;20.10;12.05;;;9.40;99.90;;;;;;5033323;28;20033;-79
2021/11/18 08:34:23;;;;;;;20.50;10.32;;;9.50;99.90;;;;;;5033771;28;20029;-76
2021/11/18 08:36:50;;;;;;;28.40;21.20;;;9.50;99.90;;;;;;5033099;28;20032;-81
2021/11/18 08:39:20;;;;;;;20.00;10.35;;;9.60;99.90;;;;;;5015964;28;20075;-85
2021/11/18 08:41:52;;;;;;;17.35;9.15;;;9.60;99.90;;;;;;5014877;28;20071;-80
2021/11/18 08:44:19;;;;;;;18.05;7.53;;;9.80;99.90;;;;;;5003808;28;20056;-80
2021/11/18 08:46:45;;;;;;;20.88;11.13;;;9.90;99.90;;;;;;5013922;28;20480;-82
2021/11/18 08:49:11;;;;;;;23.95;10.13;;;9.90;99.90;;;;;;5026292;28;20022;-77
2021/11/18 08:51:37;;;;;;;38.10;26.90;;;9.90;99.90;;;;;;5033803;28;20455;-79
2021/11/18 08:54:06;;;;;;;23.63;8.93;;;9.90;99.90;;;;;;5033805;28;20669;-81
2021/11/18 08:56:32;;;;;;;19.65;10.82;;;9.70;99.90;;;;;;5033796;28;20049;-75
2021/11/18 08:58:59;;;;;;;19.08;8.90;;;9.90;99.90;;;;;;5033032;28;20021;-82
2021/11/18 09:01:33;;;;;;;24.10;12.88;;;10.00;99.90;;;;;;4999713;28;20033;-80
2021/11/18 09:04:06;;;;;;;19.15;9.00;;;10.10;99.90;;;;;;5033034;28;20079;-80
2021/11/18 09:06:32;;;;;;;19.77;7.60;;;10.20;99.90;;;;;;5033616;28;20036;-83
2021/11/18 09:08:58;;;;;;;16.75;7.38;;;10.30;99.90;;;;;;5033196;28;20108;-82
2021/11/18 09:11:27;;;;;;;24.08;8.60;;;10.40;99.90;;;;;;5032872;28;20063;-80
2021/11/18 09:13:53;;;;;;;18.60;9.10;;;10.30;99.90;;;;;;5033243;28;20068;-81
2021/11/18 09:16:21;;;;;;;29.50;12.73;;;10.40;99.90;;;;;;5015265;28;20029;-80
2021/11/18 09:18:47;;;;;;;20.25;13.50;;;10.50;99.90;;;;;;5033230;28;20494;-79
2021/11/18 09:21:17;;;;;;;15.43;5.75;;;10.60;99.90;;;;;;5015289;28;20037;-77
2021/11/18 09:23:47;;;;;;;17.63;8.73;;;10.70;99.90;;;;;;5033170;28;20029;-77
2021/11/18 09:26:18;;;;;;;19.17;8.90;;;10.80;99.90;;;;;;5032977;28;20026;-77
2021/11/18 09:28:44;;;;;;;17.75;8.00;;;10.90;99.90;;;;;;5033226;28;20018;-78
2021/11/18 09:31:12;;;;;;;19.17;9.20;;;10.90;99.90;;;;;;5032800;28;20396;-74
2021/11/18 09:33:40;;;;;;;24.50;14.35;;;11.00;99.90;;;;;;5025069;28;20049;-85
2021/11/18 09:36:08;;;;;;;24.92;12.30;;;11.00;99.90;;;;;;5015681;28;20026;-82
2021/11/18 09:38:39;;;;;;;19.45;9.35;;;11.00;99.90;;;;;;5032864;28;20087;-79
2021/11/18 09:41:26;;;;;;;16.17;8.05;;;11.10;99.90;;;;;;5032970;28;20033;-80
2021/11/18 09:44:00;;;;;;;22.42;10.23;;;11.10;99.90;;;;;;5032634;28;20109;-78
2021/11/18 09:46:55;;;;;;;25.17;9.48;;;11.10;99.90;;;;;;5032960;28;20037;-79
2021/11/18 09:49:44;;;;;;;14.82;7.15;;;11.20;99.90;;;;;;5002157;28;20387;-79
2021/11/18 09:52:45;;;;;;;16.38;7.80;;;11.10;99.90;;;;;;5032904;28;20107;-78
2021/11/18 09:55:55;;;;;;;17.88;6.95;;;11.20;99.90;;;;;;5032521;28;20498;-79
2021/11/18 09:58:36;;;;;;;13.20;6.80;;;11.10;99.90;;;;;;5005714;28;20495;-79
2021/11/18 10:01:01;;;;;;;;;;;11.20;99.90;;;;;;5033009;28;20096;-79
2021/11/18 10:03:36;;;;;;;15.35;6.80;;;11.20;99.90;;;;;;5032482;28;19913;-77
2021/11/18 10:06:22;;;;;;;16.90;7.32;;;11.30;99.90;;;;;;5033058;28;20112;-81
2021/11/18 10:09:18;;;;;;;17.25;9.20;;;11.40;99.90;;;;;;5030151;28;20033;-82
2021/11/18 10:12:03;;;;;;;15.45;7.15;;;11.40;99.90;;;;;;5032834;28;20052;-79
2021/11/18 10:14:46;;;;;;;16.92;7.53;;;11.50;99.90;;;;;;5032506;28;20049;-77
2021/11/18 10:17:21;;;;;;;20.50;9.52;;;11.50;99.90;;;;;;5032091;28;20059;-78
2021/11/18 10:19:54;;;;;;;15.00;6.50;;;11.60;99.90;;;;;;5032776;28;20017;-80
2021/11/18 10:22:22;;;;;;;18.58;6.63;;;11.70;99.90;;;;;;5016693;28;20163;-80
2021/11/18 10:24:52;;;;;;;19.80;6.40;;;11.60;99.90;;;;;;5036136;28;20021;-81
2021/11/18 10:27:29;;;;;;;18.92;6.85;;;11.70;99.90;;;;;;5036061;28;20036;-80
2021/11/18 10:30:16;;;;;;;23.70;8.02;;;11.70;99.90;;;;;;5017669;28;20562;-78
2021/11/18 10:32:51;;;;;;;16.15;6.22;;;11.80;99.90;;;;;;5035250;28;20032;-77
2021/11/18 10:35:27;;;;;;;16.30;6.35;;;11.80;99.90;;;;;;5035483;28;20055;-80
2021/11/18 10:38:15;;;;;;;18.02;7.28;;;11.70;99.90;;;;;;5036067;28;20032;-76
2021/11/18 10:41:00;;;;;;;20.33;7.45;;;11.80;99.90;;;;;;5036517;28;20487;-81
2021/11/18 10:43:30;;;;;;;14.82;6.32;;;11.90;99.90;;;;;;5036275;28;20033;-77
2021/11/18 10:46:11;;;;;;;;;;;11.90;99.90;;;;;;5036642;28;20383;-77
2021/11/18 10:48:41;;;;;;;17.52;5.95;;;12.00;99.90;;;;;;5036072;28;19908;-77
2021/11/18 10:51:11;;;;;;;13.38;6.30;;;12.00;99.90;;;;;;5035312;28;20057;-78
2021/11/18 10:53:56;;;;;;;16.70;7.25;;;12.10;99.90;;;;;;5035519;28;20127;-78
2021/11/18 10:56:29;;;;;;;19.45;6.28;;;12.10;99.90;;;;;;5036346;28;20046;-78
2021/11/18 10:59:11;;;;;;;16.25;5.63;;;12.20;99.90;;;;;;5017651;28;20466;-78
2021/11/18 11:01:43;;;;;;;19.55;9.88;;;12.20;99.90;;;;;;5035318;28;20021;-85
2021/11/18 11:04:11;;;;;;;23.73;10.25;;;12.30;99.90;;;;;;5036152;28;20030;-81
2021/11/18 11:06:46;;;;;;;19.15;6.20;;;12.30;99.90;;;;;;5017723;28;20027;-80
2021/11/18 11:09:21;;;;;;;17.65;7.28;;;12.30;99.90;;;;;;5034914;28;20052;-79
2021/11/18 11:12:08;;;;;;;24.10;10.48;;;12.30;99.90;;;;;;5035908;28;20467;-78
2021/11/18 11:15:12;;;;;;;18.88;6.18;;;12.40;99.90;;;;;;5035686;28;20474;-80
2021/11/18 11:18:19;;;;;;;17.58;7.65;;;12.50;99.90;;;;;;5021071;28;20022;-78
2021/11/18 11:21:15;;;;;;;19.13;5.68;;;12.60;99.90;;;;;;5035103;28;20101;-80
2021/11/18 11:23:49;;;;;;;16.35;6.20;;;12.60;99.90;;;;;;5035871;28;20026;-76
2021/11/18 11:26:37;;;;;;;19.95;6.20;;;12.70;99.90;;;;;;5034879;28;20029;-78
2021/11/18 11:29:12;;;;;;;19.73;6.40;;;12.70;99.90;;;;;;4998367;28;20057;-72
2021/11/18 11:32:15;;;;;;;16.20;4.50;;;12.80;99.90;;;;;;5015425;28;20026;-72
2021/11/18 11:35:01;;;;;;;12.82;4.60;;;12.90;99.90;;;;;;5015595;28;20055;-73
2021/11/18 11:37:49;;;;;;;18.45;4.82;;;12.90;99.90;;;;;;5015698;28;20026;-72
2021/11/18 11:40:20;;;;;;;15.95;4.45;;;12.90;99.90;;;;;;5015103;28;20495;-74
2021/11/18 11:43:13;;;;;;;14.45;4.55;;;13.10;99.90;;;;;;5015609;28;20113;-72
2021/11/18 11:46:01;;;;;;;17.70;3.88;;;13.10;99.90;;;;;;5015267;28;20066;-71
2021/11/18 11:48:48;;;;;;;17.08;4.50;;;13.00;99.90;;;;;;5015550;28;20026;-72
2021/11/18 11:51:37;;;;;;;13.23;4.10;;;13.10;99.90;;;;;;5015193;28;20030;-71
2021/11/18 11:54:24;;;;;;;16.73;4.15;;;13.10;99.90;;;;;;4997200;28;20034;-74
2021/11/18 11:57:15;;;;;;;16.85;4.35;;;13.20;99.90;;;;;;5014670;28;20049;-74
2021/11/18 11:59:46;;;;;;;13.50;3.95;;;13.20;99.90;;;;;;4998160;28;20091;-72
2021/11/18 12:02:27;;;;;;;17.08;4.95;;;13.30;99.90;;;;;;5014709;28;20034;-74
2021/11/18 12:05:13;;;;;;;15.85;4.35;;;13.30;99.90;;;;;;5015010;28;20034;-74
2021/11/18 12:07:48;;;;;;;21.38;4.78;;;13.20;99.90;;;;;;5014907;28;20075;-72
2021/11/18 12:10:39;;;;;;;16.40;4.75;;;13.20;99.90;;;;;;5015055;28;20418;-72
2021/11/18 12:13:35;;;;;;;13.82;3.30;;;13.20;99.90;;;;;;5014493;28;20435;-74
2021/11/18 12:16:08;;;;;;;14.10;4.32;;;13.30;99.90;;;;;;5014993;28;20054;-72
2021/11/18 12:18:54;;;;;;;14.25;3.88;;;13.20;99.90;;;;;;5014487;28;20026;-74
2021/11/18 12:21:21;;;;;;;16.55;3.47;;;13.30;99.90;;;;;;5014673;28;20029;-74
2021/11/18 12:24:12;;;;;;;16.58;3.63;;;13.30;99.90;;;;;;5014543;28;20037;-74
2021/11/18 12:26:46;;;;;;;18.67;5.35;;;13.30;99.90;;;;;;5002721;28;20404;-74
2021/11/18 12:29:19;;;;;;;20.35;5.18;;;13.30;99.90;;;;;;5014185;28;20036;-73
2021/11/18 12:32:12;;;;;;;20.40;5.68;;;13.30;99.90;;;;;;5014529;28;20018;-74
2021/11/18 12:35:09;;;;;;;20.20;4.82;;;13.30;99.90;;;;;;5014130;28;20104;-75
2021/11/18 12:37:46;;;;;;;16.67;4.90;;;13.30;99.90;;;;;;5014102;28;20022;-74
2021/11/18 12:40:32;;;;;;;16.33;4.53;;;13.20;99.90;;;;;;5014376;28;20037;-72
2021/11/18 12:43:19;;;;;;;18.15;4.78;;;13.20;99.90;;;;;;5014305;28;20534;-72
2021/11/18 12:45:53;;;;;;;16.58;4.97;;;13.30;99.90;;;;;;5013724;28;20391;-72
2021/11/18 12:48:37;;;;;;;19.38;4.68;;;13.40;99.90;;;;;;5014249;28;20029;-73
2021/11/18 12:51:15;;;;;;;15.40;4.60;;;13.40;99.90;;;;;;5014555;28;20022;-74
2021/11/18 12:53:48;;;;;;;21.55;4.63;;;13.40;99.90;;;;;;5013877;28;20022;-74
2021/11/18 12:56:23;;;;;;;19.25;5.07;;;13.40;99.90;;;;;;4992706;28;20050;-72
2021/11/18 12:58:53;;;;;;;23.08;5.70;;;13.40;99.90;;;;;;4994175;28;20070;-74